Terminal Aerodrome Forecast
Issued by NWS Blacksburg, VA

Current Version | Previous Version | Graphics & Text | Print | Product List | Glossary On
Versions: 1 2 3 4 5 6 7 8 9 10 11 12 13 14 15 16 17
000
FTUS41 KRNK 141003 AAA
TAFBLF
TAF AMD
KBLF 141003Z 1410/1506 32005KT P6SM OVC015
     FM141200 33005KT P6SM BKN025
     FM141500 34004KT P6SM SCT025
     FM141900 VRB03KT P6SM SCT200=

USA.gov is the U.S. government's official web portal to all federal, state and local government web resources and services.